Change the Weather History Date:

Tuesday, April 22, 2014

  Actual Average Record
Temperature  
Mean Temperature 56 °F -  
Max Temperature 70 °F 66 °F 91 °F (1985)
Min Temperature 41 °F 52 °F 23 °F (1984)
Degree Days  
Heating Degree Days 10    
Growing Degree Days 6 (Base 50)    
Moisture  
Dew Point 50 °F    
Average Humidity 77    
Maximum Humidity 100    
Minimum Humidity 56    
Precipitation  
Precipitation 0.00 in - - ()
Sea Level Pressure  
Sea Level Pressure 29.76 in    
Wind  
Wind Speed 4 mph (SSW)    
Max Wind Speed 16 mph    
Max Gust Speed 20 mph    
Visibility 9 miles    
Events Fog    
Averages and records for this station are not official NWS values.
T = Trace of Precipitation, MM = Missing Value Source: NWS Daily Summary

Daily Weather History Graph

Daily Weather History Graph

Search for Another Location

Airport or City:

Trip Planner

Search our weather history database for the weather conditions in past years. The results will help you decide how hot, cold, wet, or windy it might be!

Date:

Astronomy

Apr. 22, 2014 Rise Set
Actual Time 6:20 AM EDT 7:42 PM EDT
Civil Twilight 5:54 AM EDT 8:09 PM EDT
Nautical Twilight 5:22 AM EDT 8:41 PM EDT
Astronomical Twilight 4:48 AM EDT 9:14 PM EDT
Moon 1:54 AM EDT (4/22) 12:54 PM EDT (4/22)
Length of Visible Light 14h 15m
Length of Day
13h 21m
Last Quarter, 46% of the Moon is Illuminated
Apr 22
Last Quarter
Apr 29
New
May 6
First Quarter
May 14
Full
May 21
Last Quarter

Hourly Weather History & Observations

Time (EDT) Temp. Dew Point Humidity Pressure Visibility Wind Dir Wind Speed Gust Speed Precip Events Conditions
12:15 AM 48.2 °F 46.8 °F 95% 29.92 in 10.0 mi North 3.5 mph - N/A   Mostly Cloudy
12:35 AM 48.0 °F 46.8 °F 95% 29.92 in 10.0 mi Calm Calm - N/A   Mostly Cloudy
12:55 AM 47.5 °F 46.6 °F 97% 29.92 in 10.0 mi Calm Calm - N/A   Mostly Cloudy
1:15 AM 48.2 °F 46.9 °F 95% 29.91 in 10.0 mi Calm Calm - N/A   Overcast
1:35 AM 47.8 °F 46.8 °F 96% 29.90 in 10.0 mi Calm Calm - N/A   Scattered Clouds
1:55 AM 48.2 °F 47.3 °F 97% 29.90 in 10.0 mi Calm Calm - N/A   Clear
2:15 AM 47.7 °F 46.9 °F 97% 29.88 in 10.0 mi Calm Calm - N/A   Clear
2:35 AM 46.9 °F 46.4 °F 98% 29.87 in 10.0 mi Calm Calm - N/A   Scattered Clouds
2:55 AM 46.6 °F 46.2 °F 99% 29.88 in 10.0 mi Calm Calm - N/A   Scattered Clouds
3:15 AM 44.8 °F 44.1 °F 97% 29.87 in 10.0 mi Calm Calm - N/A   Clear
3:35 AM 44.4 °F 44.2 °F 99% 29.87 in 4.0 mi Calm Calm - N/A   Clear
3:55 AM 43.5 °F 43.2 °F 99% 29.87 in 4.0 mi Calm Calm - N/A   Clear
4:15 AM 42.6 °F 42.4 °F 99% 29.86 in 1.0 mi Calm Calm - N/A   Mist
4:35 AM 41.9 °F 41.9 °F 100% 29.86 in 0.8 mi Calm Calm - N/A   Scattered Clouds
4:55 AM 41.9 °F 41.9 °F 100% 29.85 in 3.0 mi Calm Calm - N/A   Clear
5:15 AM 41.2 °F 41.2 °F 100% 29.85 in 0.5 mi Calm Calm - N/A Fog Fog
5:35 AM 41.0 °F 41.0 °F 100% 29.85 in 5.0 mi Calm Calm - N/A   Scattered Clouds
5:55 AM 42.3 °F 42.1 °F 99% 29.85 in 10.0 mi Calm Calm - N/A   Clear
6:15 AM 42.4 °F 42.3 °F 99% 29.84 in 10.0 mi Calm Calm - N/A   Clear
6:35 AM 44.1 °F 43.9 °F 99% 29.85 in 10.0 mi Calm Calm - N/A   Clear
6:55 AM 43.5 °F 43.2 °F 99% 29.85 in 10.0 mi Calm Calm - N/A   Clear
7:15 AM 44.8 °F 44.1 °F 97% 29.85 in 10.0 mi Calm Calm - N/A   Clear
7:35 AM 47.3 °F 46.8 °F 98% 29.84 in 10.0 mi Calm Calm - N/A   Clear
7:55 AM 51.1 °F 50.5 °F 98% 29.85 in 10.0 mi WSW 3.5 mph - N/A   Clear
8:15 AM 51.6 °F 50.7 °F 97% 29.85 in 10.0 mi WSW 4.6 mph - N/A   Clear
8:35 AM 51.4 °F 50.4 °F 96% 29.84 in 10.0 mi SW 4.6 mph - N/A   Clear
8:55 AM 53.1 °F 50.5 °F 91% 29.84 in 10.0 mi SW 5.8 mph - N/A   Clear
9:15 AM 54.3 °F 51.1 °F 89% 29.83 in 10.0 mi SSW 4.6 mph - N/A   Clear
9:35 AM 57.4 °F 50.5 °F 78% 29.83 in 10.0 mi SSW 5.8 mph - N/A   Clear
9:55 AM 59.4 °F 50.0 °F 71% 29.82 in 10.0 mi SSW 5.8 mph - N/A   Clear
10:15 AM 60.4 °F 50.4 °F 69% 29.82 in 10.0 mi SSW 6.9 mph - N/A   Clear
10:35 AM 63.1 °F 50.2 °F 63% 29.81 in 10.0 mi SSW 5.8 mph - N/A   Clear
10:55 AM 64.6 °F 50.2 °F 60% 29.81 in 10.0 mi SSW 6.9 mph - N/A   Clear
11:15 AM 63.7 °F 51.4 °F 64% 29.80 in 10.0 mi South 8.1 mph - N/A   Clear
11:35 AM 65.7 °F 51.6 °F 60% 29.80 in 10.0 mi South 9.2 mph - N/A   Clear
11:55 AM 67.5 °F 52.5 °F 59% 29.79 in 10.0 mi South 8.1 mph - N/A   Clear
12:15 PM 67.6 °F 53.8 °F 61% 29.77 in 10.0 mi South 9.2 mph - N/A   Clear
12:35 PM 67.1 °F 54.7 °F 64% 29.76 in 10.0 mi South 10.4 mph - N/A   Clear
12:55 PM 68.0 °F 54.7 °F 62% 29.74 in 10.0 mi South 11.5 mph - N/A   Clear
1:15 PM 67.8 °F 55.4 °F 64% 29.74 in 10.0 mi South 11.5 mph - N/A   Clear
1:35 PM 68.7 °F 55.6 °F 63% 29.73 in 10.0 mi South 11.5 mph - N/A   Clear
1:55 PM 66.2 °F 55.0 °F 67% 29.72 in 10.0 mi South 13.8 mph - N/A   Clear
2:15 PM 68.7 °F 55.6 °F 63% 29.71 in 10.0 mi South 13.8 mph - N/A   Clear
2:35 PM 69.6 °F 56.5 °F 63% 29.70 in 10.0 mi South 13.8 mph - N/A   Clear
2:55 PM 70.2 °F 56.5 °F 62% 29.69 in 10.0 mi South 13.8 mph - N/A   Clear
3:15 PM 70.7 °F 56.7 °F 61% 29.68 in 10.0 mi SSW 13.8 mph - N/A   Clear
3:35 PM 70.0 °F 57.2 °F 64% 29.67 in 10.0 mi South 13.8 mph - N/A   Clear
3:55 PM 69.8 °F 56.7 °F 63% 29.66 in 10.0 mi SSW 13.8 mph - N/A   Clear
4:15 PM 67.8 °F 56.1 °F 66% 29.66 in 10.0 mi SSW 11.5 mph - N/A   Clear
4:35 PM 69.8 °F 56.5 °F 63% 29.66 in 10.0 mi SSW 11.5 mph - N/A   Clear
4:55 PM 69.3 °F 55.8 °F 62% 29.65 in 10.0 mi SSW 15.0 mph 19.6 mph N/A   Clear
5:15 PM 69.3 °F 54.7 °F 60% 29.65 in 10.0 mi SSW 13.8 mph - N/A   Clear
5:35 PM 69.3 °F 53.1 °F 56% 29.64 in 10.0 mi SSW 16.1 mph - N/A   Clear
5:55 PM 66.6 °F 52.2 °F 60% 29.64 in 10.0 mi SSW 15.0 mph - N/A   Clear
6:15 PM 66.2 °F 52.2 °F 61% 29.64 in 10.0 mi SSW 13.8 mph - N/A   Clear
6:35 PM 66.2 °F 52.9 °F 62% 29.64 in 10.0 mi SSW 12.7 mph - N/A   Clear
6:55 PM 65.7 °F 53.4 °F 65% 29.64 in 10.0 mi SSW 10.4 mph - N/A   Clear
7:15 PM 65.7 °F 53.6 °F 65% 29.64 in 10.0 mi SSW 10.4 mph - N/A   Clear
7:35 PM 66.0 °F 53.6 °F 64% 29.64 in 10.0 mi SSW 11.5 mph - N/A   Clear
7:55 PM 64.6 °F 53.1 °F 66% 29.64 in 10.0 mi SSW 11.5 mph - N/A   Clear
8:15 PM 64.4 °F 53.1 °F 67% 29.64 in 10.0 mi SSW 10.4 mph - N/A   Clear
8:35 PM 64.2 °F 51.8 °F 64% 29.64 in 10.0 mi SSW 9.2 mph - N/A   Clear
8:55 PM 63.9 °F 51.4 °F 64% 29.64 in 10.0 mi SSW 6.9 mph - N/A   Clear
9:15 PM 63.5 °F 51.3 °F 64% 29.64 in 10.0 mi SSW 4.6 mph - N/A   Clear
9:35 PM 62.6 °F 51.3 °F 66% 29.65 in 10.0 mi SSW 5.8 mph - N/A   Clear
10:15 PM 62.8 °F 50.7 °F 65% 29.65 in 10.0 mi SSW 6.9 mph - N/A   Overcast
10:35 PM 61.2 °F 51.4 °F 70% 29.66 in 10.0 mi WSW 3.5 mph - N/A   Overcast
10:55 PM 64.2 °F 51.1 °F 62% 29.66 in 10.0 mi West 6.9 mph - N/A   Overcast
11:15 PM 63.5 °F 51.8 °F 66% 29.65 in 10.0 mi West 3.5 mph - N/A   Overcast
11:35 PM 61.9 °F 52.7 °F 72% 29.65 in 10.0 mi Calm Calm - N/A   Overcast
11:55 PM 63.3 °F 52.0 °F 66% 29.64 in 10.0 mi West 5.8 mph - N/A   Overcast